<h2>Celebrating 3 years‏</h2><p>Thanks all !!!</p>

Oman Air Virtual

About Us. About Our VA

Book Virtual Flights

Fly from Muscat to the World Virtually!

OMV News & Updates

OMV Newest Pilot

OMV Statistics

Total Fights Loged Today: 4
Total Visits Past Hour: 2
Total Pilots Registered: 150
Total Flights Flown: 3365
Total Aircrafts Active: 58
Total Flight Schedules: 272
Total Miles Flown: 3521981
Total Hours Clocked: 9041.10
Total Passengers: 1,649,286
Total CodeShare flight added: 32 Flights
VA average landing rate: -22
Virtual Airline Rank: 120

Flight Tracking

LIVE Flight Tracking and Route

Destinations

View Our Wide Virtual Network

VA QUICK FACT:


Pilots

Aircraft in Fleet

Completed Flights

Schedules


Opreated by # No. Origin Destination Fleet / PIC
OMA643 OOMS OKBK 737-81M

PIC: Mohammad Bensaeid
OMA602 OMDB OOMS B737-81M

PIC: Sayed Zaafir
OMA5867 OOMS OMDB B777-300

PIC: Thamir AL-Mughairi
OMA114 EDDF OOMS B787-9

PIC: Fahad A.salaam
OMA823 OOMS WMKK A330-343

PIC: Abdullah Hamad Abdullah AlMarjibi
OMA5101 VCBI VRMM A320-200

PIC: Mohamed Hafeel
Opreated by # No. Origin Destination Landing Rate Status
OMA913

View Report
OOMS OOSA -314 ft/min Normal landing Approval Pending
OMA818

View Report
VTBS OOMS Kiss Landing -78 ft/min Approval Pending
OMA673

View Report
OOMS OEJN -237 ft/min Normal landing Approval Pending
OMA844

View Report
RPLL OOMS -293 ft/min Normal landing Approval Pending
OMA7001

View Report
OMDB OOKB 0 ft/min Not Record Rejected

Source: IVAO Metar and TAF Information.

Muscat International Airport (ICAO: OOMS)
METAR: OOMS 212150Z 05006KT 8000 NSC 33/26 Q0995 NOSIG
TAF: OOMS 211700Z 2118/2300 22007KT 8000 NSC PROB30 TEMPO 2119/2205 BKN050 BECMG 2206/2208 01012KT BECMG 2218/2220 VRB03KT PROB30 TEMPO 2219/2223 22012KT

Salalah International Airport (ICAO: OOSA)
METAR: OOSA 212150Z 17008KT 7000 FEW008 BKN012 OVC020 26/24 Q1003 NOSIG
TAF: OOSA 211700Z 2118/2300 15009KT 7000 SCT014 BKN017 OVC025 TEMPO 2200/2205 5000 -DZ FEW010 BKN014 OVC020 BECMG 2215/2217 4000 -DZ BR SCT008 BKN014 OVC020 PROB40 TEMPO 2220/2300 2500 DZRA SCT004 BKN012 OVC018

Oman Air Virtual is no way affiliated to the real Oman Air. How ever the brand logo, colors belongs to Oman Air and we use only for the Simulation Purpose for the virtual aviation enthousiast around the globe.

If you are looking for Oman Air website, we kindly request you to visit www.omanair.com

ATC Online IVAO
Pilots Online IVAO
OMV birthday
Member Online